Flight Track Log - Related Links

Times and Time Zones

All times are in EDT time to prevent confusion due to time zone crossing. See the VOZ247 flight status page for this flight to view local times or setup timezone preferences in your user account.

Time Position Orientation Groundspeed Altitude Reporting Facility
EDT Latitude Longitude Course Direction KTS MPH feet Rate Location/Type
Sun 05:36:25 AM -37.6600 144.8070 274° West 162 186 1,600  Level FlightAware ADS-B
Sun 05:36:35 AM -37.6590 144.7962 270° West 152 175 2,200 2,800 Climbing Aus ATC (RADAR)
Sun 05:36:40 AM -37.6590 144.7930 275° West 167 192 2,300 2,200 Climbing FlightAware ADS-B
Sun 05:37:05 AM -37.6570 144.7660 275° West 191 220 3,300 2,400 Climbing FlightAware ADS-B
Sun 05:37:10 AM -37.6570 144.7620 270° West 194 223 3,500 2,500 Climbing FlightAware ADS-B
Sun 05:37:17 AM -37.6540 144.7550 298° West 199 229 3,800 3,200 Climbing FlightAware ADS-B
Sun 05:37:25 AM -37.6490 144.7460 305° West 211 243 4,300 2,087 Climbing FlightAware ADS-B
Sun 05:37:40 AM -37.6380 144.7320 315° West 241 277 4,600 1,714 Climbing FlightAware ADS-B
Sun 05:38:00 AM -37.6210 144.7110 316° Northwest 263 303 5,300 2,919 Climbing FlightAware ADS-B
Sun 05:38:17 AM -37.6080 144.6950 316° Northwest 258 297 6,400 4,200 Climbing FlightAware ADS-B
Sun 05:38:20 AM -37.6050 144.6890 302° West 256 295 6,700 4,333 Climbing FlightAware ADS-B
Sun 05:38:35 AM -37.5990 144.6670 289° West 253 291 7,700 3,943 Climbing FlightAware ADS-B
Sun 05:38:55 AM -37.5910 144.6400 290° West 254 292 9,000 3,382 Climbing FlightAware ADS-B
Sun 05:39:30 AM -37.5770 144.5890 289° West 268 308 10,800 2,743 Climbing FlightAware ADS-B
Sun 05:40:05 AM -37.5620 144.5360 290° West 290 334 12,200 2,914 Climbing FlightAware ADS-B
Sun 05:40:40 AM -37.5460 144.4790 289° West 287 330 14,200 3,000 Climbing FlightAware ADS-B
Sun 05:41:15 AM -37.5300 144.4240 290° West 304 350 15,700 1,938 Climbing FlightAware ADS-B
Sun 05:41:45 AM -37.5144 144.3702 290° West 310 357 16,300 1,371 Climbing Aus ATC (RADAR)
Sun 05:41:50 AM -37.5130 144.3620 290° West 331 381 16,500 2,400 Climbing FlightAware ADS-B
Sun 05:42:25 AM -37.4935 144.2968 290° West 326 375 17,900 2,400 Climbing Aus ATC (RADAR)
Sun 05:42:25 AM -37.4940 144.2970 290° West 341 392 17,900 2,057 Level FlightAware ADS-B
Sun 05:43:00 AM -37.4750 144.2300 290° West 353 406 19,100 2,486 Climbing FlightAware ADS-B
Sun 05:43:35 AM -37.4560 144.1640 290° West 349 402 20,800 3,042 Climbing FlightAware ADS-B
Sun 05:44:11 AM -37.4360 144.0940 290° West 333 383 22,700 3,182 Climbing FlightAware ADS-B
Sun 05:44:41 AM -37.4210 144.0410 290° West 325 374 24,300 1,588 Climbing FlightAware ADS-B
Sun 05:45:19 AM -37.4002 143.9691 290° West 338 389 24,500 600 Climbing Aus ATC (RADAR)
Sun 05:45:21 AM -37.4000 143.9690 290° West 353 406 24,700 1,886 Climbing FlightAware ADS-B
Sun 05:45:54 AM -37.3806 143.9010 290° West 349 402 25,600 1,500 Climbing Aus ATC (RADAR)
Sun 05:45:57 AM -37.3800 143.8990 290° West 359 413 25,600 1,256 Level FlightAware ADS-B
Sun 05:46:37 AM -37.3560 143.8170 290° West 366 421 26,500 1,263 Climbing FlightAware ADS-B
Sun 05:47:13 AM -37.3360 143.7460 289° West 374 430 27,200 1,333 Climbing FlightAware ADS-B
Sun 05:47:49 AM -37.3150 143.6750 290° West 372 428 28,100 1,800 Climbing FlightAware ADS-B
Sun 05:48:23 AM -37.2950 143.6060 290° West 363 418 29,300 2,229 Climbing FlightAware ADS-B
Sun 05:48:24 AM -37.2932 143.6007 290° West 358 412 29,400 1,714 Climbing Aus ATC (RADAR)
Sun 05:48:58 AM -37.2750 143.5360 290° West 360 414 30,300 1,217 Climbing FlightAware ADS-B
Sun 05:49:33 AM -37.2540 143.4670 291° West 370 426 30,800 1,029 Climbing FlightAware ADS-B
Sun 05:50:08 AM -37.2330 143.3950 290° West 373 429 31,500 1,629 Climbing FlightAware ADS-B
Sun 05:50:43 AM -37.2130 143.3250 290° West 358 412 32,700 1,606 Climbing FlightAware ADS-B
Sun 05:51:19 AM -37.1920 143.2560 291° West 361 415 33,400 857 Climbing FlightAware ADS-B
Sun 05:51:53 AM -37.1710 143.1870 291° West 371 427 33,700 783 Climbing FlightAware ADS-B
Sun 05:52:28 AM -37.1500 143.1180 291° West 372 428 34,300 1,371 Climbing FlightAware ADS-B
Sun 05:53:03 AM -37.1280 143.0470 291° West 359 413 35,300 1,457 Climbing FlightAware ADS-B
Sun 05:53:38 AM -37.1080 142.9800 291° West 346 398 36,000 600 Climbing FlightAware ADS-B
Sun 05:54:13 AM -37.0890 142.9200 292° West 355 409 36,000  Level FlightAware ADS-B
Sun 05:54:49 AM -37.0660 142.8460 291° West 369 425 36,000  Level FlightAware ADS-B
Sun 05:55:23 AM -37.0450 142.7760 291° West 372 428 36,000  Level FlightAware ADS-B
Sun 05:55:58 AM -37.0230 142.7060 291° West 373 429 36,000  Level FlightAware ADS-B
Sun 05:56:33 AM -37.0010 142.6360 291° West 374 430 36,000  Level FlightAware ADS-B
Sun 05:57:08 AM -36.9790 142.5650 291° West 374 430 36,000  Level FlightAware ADS-B
Sun 05:57:43 AM -36.9580 142.4950 291° West 374 430 36,000  Level FlightAware ADS-B
Sun 05:58:21 AM -36.9350 142.4220 291° West 374 430 36,000  Level FlightAware ADS-B
Sun 05:58:50 AM -36.9160 142.3630 292° West 374 430 36,000  Level FlightAware ADS-B
Sun 05:59:29 AM -36.8900 142.2810 292° West 375 432 36,000  Level FlightAware ADS-B
Sun 06:00:04 AM -36.8680 142.2100 291° West 374 430 36,000  Level FlightAware ADS-B
Sun 06:00:40 AM -36.8450 142.1390 292° West 370 426 36,000  Level FlightAware ADS-B
Sun 06:01:10 AM -36.8270 142.0790 291° West 371 427 36,000  Level FlightAware ADS-B
Sun 06:01:45 AM -36.8040 142.0090 292° West 372 428 36,000  Level FlightAware ADS-B
Sun 06:02:18 AM -36.7816 141.9445 292° West 370 426 36,000  Level Aus ATC (RADAR)
Sun 06:02:25 AM -36.7790 141.9310 292° West 372 428 36,000  Level FlightAware ADS-B
Sun 06:02:55 AM -36.7600 141.8700 292° West 371 427 36,000  Level FlightAware ADS-B
Sun 06:02:58 AM -36.7568 141.8650 292° West 368 423 36,000  Level Aus ATC (RADAR)
Sun 06:03:30 AM -36.7380 141.8020 292° West 370 426 36,000  Level FlightAware ADS-B
Sun 06:04:10 AM -36.7130 141.7240 292° West 370 426 36,000  Level FlightAware ADS-B
Sun 06:04:45 AM -36.6900 141.6520 292° West 370 426 36,000  Level FlightAware ADS-B
Sun 06:05:15 AM -36.6710 141.5930 292° West 370 426 36,000  Level FlightAware ADS-B
Sun 06:05:55 AM -36.6460 141.5140 292° West 367 422 36,000  Level FlightAware ADS-B
Sun 06:06:25 AM -36.6270 141.4560 292° West 367 422 36,000  Level FlightAware ADS-B
Sun 06:07:05 AM -36.6020 141.3780 292° West 366 421 36,000  Level FlightAware ADS-B
Sun 06:07:35 AM -36.5820 141.3190 292° West 368 423 36,000 188 Level FlightAware ADS-B
Sun 06:07:37 AM -36.5790 141.3148 292° West 365 420 36,100  Climbing Aus ATC (RADAR)
Sun 06:08:10 AM -36.5610 141.2520 291° West 370 426 36,000  Descending FlightAware ADS-B
Sun 06:08:42 AM -36.5374 141.1873 291° West 366 421 36,100  Climbing Aus ATC (RADAR)
Sun 06:08:47 AM -36.5370 141.1800 291° West 365 420 36,000 -143 Descending FlightAware ADS-B
Sun 06:09:24 AM -36.5140 141.1110 293° West 362 417 36,000  Level FlightAware ADS-B
Sun 06:09:57 AM -36.4910 141.0410 292° West 359 413 36,000  Level FlightAware ADS-B
Sun 06:10:32 AM -36.4700 140.9760 292° West 357 411 36,000 92 Level FlightAware ADS-B
Sun 06:11:02 AM -36.4490 140.9179 292° West 356 410 36,100  Climbing Aus ATC (RADAR)
Sun 06:11:02 AM -36.4510 140.9170 292° West 357 411 36,000  Descending FlightAware ADS-B
Sun 06:11:37 AM -36.4274 140.8510 292° West 358 412 36,100  Climbing Aus ATC (RADAR)
Sun 06:11:40 AM -36.4280 140.8470 292° West 355 409 36,000 -158 Descending FlightAware ADS-B
Sun 06:12:15 AM -36.4050 140.7790 293° West 354 407 36,000  Level FlightAware ADS-B
Sun 06:12:45 AM -36.3860 140.7330 297° West 366 421 36,000  Level FlightAware ADS-B
Sun 06:13:22 AM -36.3430 140.6630 307° West 371 427 36,000  Level FlightAware ADS-B
Sun 06:13:57 AM -36.3060 140.6040 308° West 371 427 36,000  Level FlightAware ADS-B
Sun 06:14:32 AM -36.2690 140.5450 308° West 371 427 36,000  Level FlightAware ADS-B
Sun 06:15:09 AM -36.3858 140.7330 128° Southeast 374 430 36,000  Level FlightAware ADS-B (YPAD / ADL)
Sun 06:15:39 AM -36.1965 140.4320 308° West 373 429 36,000  Level FlightAware ADS-B (YPAD / ADL)
Sun 06:16:10 AM -36.1635 140.3802 308° West 373 429 36,000  Level FlightAware ADS-B (YPAD / ADL)
Sun 06:16:40 AM -36.1320 140.3308 308° West 373 429 36,000  Level FlightAware ADS-B (YPAD / ADL)
Sun 06:17:11 AM -36.0989 140.2792 308° West 370 426 36,000  Level FlightAware ADS-B (YPAD / ADL)
Sun 06:17:41 AM -36.0668 140.2291 308° West 367 422 36,000 100 Level FlightAware ADS-B (YPAD / ADL)
Sun 06:18:11 AM -36.0332 140.1800 308° West 364 419 36,100  Climbing Aus ATC (RADAR)
Sun 06:18:16 AM -36.0298 140.1713 308° West 367 422 36,000 -171 Descending FlightAware ADS-B (YPAD / ADL)
Sun 06:18:46 AM -35.9987 140.1231 309° West 369 425 36,000  Level FlightAware ADS-B (YPAD / ADL)
Sun 06:19:20 AM -35.9614 140.0655 309° West 368 423 36,000  Level FlightAware ADS-B (YPAD / ADL)
Sun 06:19:51 AM -35.9290 140.0153 309° West 366 421 36,000 -393 Level FlightAware ADS-B (YPAD / ADL)
Sun 06:20:21 AM -35.8967 139.9651 308° West 365 420 35,600 -1,377 Descending FlightAware ADS-B (YPAD / ADL)
Sun 06:20:52 AM -35.8660 139.9177 309° West 358 412 34,600 -2,066 Descending FlightAware ADS-B (YPAD / ADL)
Sun 06:21:22 AM -35.8350 139.8693 308° West 358 412 33,500 -2,200 Descending FlightAware ADS-B (YPAD / ADL)
Sun 06:21:52 AM -35.8032 139.8200 308° West 367 422 32,400 -2,361 Descending FlightAware ADS-B (YPAD / ADL)
Sun 06:22:23 AM -35.7692 139.7675 309° West 385 443 31,100 -2,459 Descending FlightAware ADS-B (YPAD / ADL)
Sun 06:22:53 AM -35.7370 139.7181 309° West 399 459 29,900 -2,557 Descending FlightAware ADS-B (YPAD / ADL)
Sun 06:23:24 AM -35.7010 139.6631 309° West 391 450 28,500 -2,852 Descending FlightAware ADS-B (YPAD / ADL)
Sun 06:23:54 AM -35.6660 139.6091 309° West 386 444 27,000 -3,148 Descending FlightAware ADS-B (YPAD / ADL)
Sun 06:24:25 AM -35.6322 139.5572 309° West 387 445 25,300 -2,951 Descending FlightAware ADS-B (YPAD / ADL)
Sun 06:24:55 AM -35.5982 139.5052 309° West 379 436 24,000 -2,492 Descending FlightAware ADS-B (YPAD / ADL)
Sun 06:25:30 AM -35.5614 139.4490 309° West 366 421 22,600 -2,492 Descending FlightAware ADS-B (YPAD / ADL)
Sun 06:26:00 AM -35.5292 139.4000 309° West 361 415 21,300 -2,585 Descending FlightAware ADS-B (YPAD / ADL)
Sun 06:26:35 AM -35.4938 139.3458 309° West 358 412 19,800 -2,308 Descending FlightAware ADS-B (YPAD / ADL)
Sun 06:27:05 AM -35.4637 139.3002 309° West 359 413 18,800 -2,000 Descending FlightAware ADS-B (YPAD / ADL)
Sun 06:27:35 AM -35.4289 139.2500 310° West 353 406 17,800 -2,040 Descending FlightAware ADS-B (YPAD / ADL)
Sun 06:27:55 AM -35.4033 139.2280 325° Northwest 357 411 17,100 -2,066 Descending FlightAware ADS-B (YPAD / ADL)
Sun 06:28:36 AM -35.3403 139.1971 338° Northwest 350 403 15,700 -2,028 Descending FlightAware ADS-B (YPAD / ADL)
Sun 06:29:06 AM -35.2956 139.1763 339° North 347 399 14,700 -1,967 Descending FlightAware ADS-B (YPAD / ADL)
Sun 06:29:37 AM -35.2497 139.1550 339° North 342 394 13,700 -1,869 Descending FlightAware ADS-B (YPAD / ADL)
Sun 06:30:07 AM -35.2059 139.1348 339° North 337 388 12,800 -1,754 Descending FlightAware ADS-B (YPAD / ADL)
Sun 06:30:42 AM -35.1542 139.1109 339° North 330 380 11,800 -1,784 Descending FlightAware ADS-B (YPAD / ADL)
Sun 06:31:21 AM -35.0999 139.0859 339° North 313 360 10,600 -1,437 Descending FlightAware ADS-B (YPAD / ADL)
Sun 06:31:53 AM -35.0613 139.0616 333° Northwest 281 323 10,100 -1,038 Descending FlightAware ADS-B (YPAD / ADL)
Sun 06:32:13 AM -35.0421 139.0411 319° Northwest 270 311 9,700 -1,529 Descending FlightAware ADS-B (YPAD / ADL)
Sun 06:32:44 AM -35.0138 139.0094 317° Northwest 270 311 8,800 -1,800 Descending FlightAware ADS-B (YPAD / ADL)
Sun 06:33:03 AM -34.9959 138.9894 318° Northwest 272 313 8,200 -1,950 Descending FlightAware ADS-B (YPAD / ADL)
Sun 06:33:24 AM -34.9764 138.9677 318° Northwest 273 314 7,500 -1,867 Descending FlightAware ADS-B (YPAD / ADL)
Sun 06:33:48 AM -34.9540 138.9424 317° Northwest 278 320 6,800 -1,600 Descending FlightAware ADS-B (YPAD / ADL)
Sun 06:34:09 AM -34.9342 138.9203 317° Northwest 278 320 6,300 -1,463 Descending FlightAware ADS-B (YPAD / ADL)
Sun 06:34:29 AM -34.9147 138.8986 318° Northwest 276 318 5,800 -1,500 Descending FlightAware ADS-B (YPAD / ADL)
Sun 06:34:49 AM -34.8960 138.8776 317° Northwest 270 311 5,300 -1,200 Descending FlightAware ADS-B (YPAD / ADL)
Sun 06:35:09 AM -34.8784 138.8579 317° Northwest 263 303 5,000 -1,171 Descending FlightAware ADS-B (YPAD / ADL)
Sun 06:35:30 AM -34.8598 138.8369 317° Northwest 265 305 4,500 -1,317 Descending FlightAware ADS-B (YPAD / ADL)
Sun 06:35:50 AM -34.8413 138.8162 317° Northwest 267 307 4,100 -1,350 Descending FlightAware ADS-B (YPAD / ADL)
Sun 06:36:10 AM -34.8234 138.7962 318° Northwest 268 308 3,600 -1,448 Descending FlightAware ADS-B (YPAD / ADL)
Sun 06:36:19 AM -34.8154 138.7851 311° West 263 303 3,400 -1,263 Descending FlightAware ADS-B (YPAD / ADL)
Sun 06:36:29 AM -34.8105 138.7719 294° West 254 292 3,200 -375 Descending FlightAware ADS-B (YPAD / ADL)
Sun 06:36:51 AM -34.8094 138.7431 273° West 229 264 3,200  Level FlightAware ADS-B (YPAD / ADL)
Sun 06:37:01 AM -34.8126 138.7311 252° West 217 250 3,200  Level FlightAware ADS-B (YPAD / ADL)
Sun 06:37:10 AM -34.8171 138.7215 240° Southwest 208 239 3,200  Level FlightAware ADS-B (YPAD / ADL)
Sun 06:37:30 AM -34.8285 138.7042 231° Southwest 199 229 3,200 -286 Level FlightAware ADS-B (YPAD / ADL)
Sun 06:37:52 AM -34.8418 138.6867 227° Southwest 189 217 3,000 -714 Descending FlightAware ADS-B (YPAD / ADL)
Sun 06:38:12 AM -34.8529 138.6707 230° Southwest 181 208 2,700 -923 Descending FlightAware ADS-B (YPAD / ADL)
Sun 06:38:31 AM -34.8628 138.6563 230° Southwest 173 199 2,400 -878 Descending FlightAware ADS-B (YPAD / ADL)
Sun 06:38:53 AM -34.8735 138.6405 230° Southwest 166 191 2,100 -857 Descending FlightAware ADS-B (YPAD / ADL)
Sun 06:39:13 AM -34.8833 138.6261 230° Southwest 155 178 1,800 -900 Descending FlightAware ADS-B (YPAD / ADL)
Sun 06:39:33 AM -34.8922 138.6137 229° Southwest 134 154 1,500 -800 Descending FlightAware ADS-B (YPAD / ADL)
Sun 06:39:58 AM -34.9016 138.5998 231° Southwest 131 151 1,200 -818 Descending FlightAware ADS-B (YPAD / ADL)
Sun 06:40:17 AM -34.9089 138.5888 231° Southwest 124 143 900 -750 Descending FlightAware ADS-B (YPAD / ADL)
Sun 06:40:38 AM -34.9168 138.5780 228° Southwest 124 143 700 -585 Descending FlightAware ADS-B (YPAD / ADL)
Sun 06:40:58 AM -34.9241 138.5672 231° Southwest 125 144 500 -621 Descending FlightAware ADS-B (YPAD / ADL)
Sun 06:41:36 AM -34.9380 138.5470 230° Southwest 125 144 100 -632 Descending FlightAware ADS-B

Login

Don't have an account? Register now (free) for customized features, flight alerts, and more!